sensor_id;sensor_type;location;lat;lon;timestamp;temperature;humidity
21580;DHT22;10951;59.656;9.666;2023-02-15T00:01:58;-0.90;99.90
21580;DHT22;10951;59.656;9.666;2023-02-15T00:04:25;-0.90;99.90
21580;DHT22;10951;59.656;9.666;2023-02-15T00:07:15;-1.00;99.90
21580;DHT22;10951;59.656;9.666;2023-02-15T00:09:42;-1.10;99.90
21580;DHT22;10951;59.656;9.666;2023-02-15T00:12:11;-1.10;99.90
21580;DHT22;10951;59.656;9.666;2023-02-15T00:14:38;-1.20;99.90
21580;DHT22;10951;59.656;9.666;2023-02-15T00:17:05;-1.20;99.90
21580;DHT22;10951;59.656;9.666;2023-02-15T00:19:31;-1.20;99.90
21580;DHT22;10951;59.656;9.666;2023-02-15T00:21:58;-1.20;99.90
21580;DHT22;10951;59.656;9.666;2023-02-15T00:24:26;-1.30;99.90
21580;DHT22;10951;59.656;9.666;2023-02-15T00:26:53;-1.30;99.90
21580;DHT22;10951;59.656;9.666;2023-02-15T00:29:20;-1.30;99.90
21580;DHT22;10951;59.656;9.666;2023-02-15T00:31:48;-1.30;99.90
21580;DHT22;10951;59.656;9.666;2023-02-15T00:34:16;-1.20;99.90
21580;DHT22;10951;59.656;9.666;2023-02-15T00:36:44;-1.10;99.90
21580;DHT22;10951;59.656;9.666;2023-02-15T00:39:13;-1.00;99.90
21580;DHT22;10951;59.656;9.666;2023-02-15T00:41:41;-0.90;99.90
21580;DHT22;10951;59.656;9.666;2023-02-15T00:44:08;-0.90;99.90
21580;DHT22;10951;59.656;9.666;2023-02-15T00:46:35;-0.90;99.90
21580;DHT22;10951;59.656;9.666;2023-02-15T00:49:02;-0.80;99.90
21580;DHT22;10951;59.656;9.666;2023-02-15T00:51:30;-0.90;99.90
21580;DHT22;10951;59.656;9.666;2023-02-15T00:53:58;-0.90;99.90
21580;DHT22;10951;59.656;9.666;2023-02-15T00:56:25;-1.00;99.90
21580;DHT22;10951;59.656;9.666;2023-02-15T00:58:52;-1.00;99.90
21580;DHT22;10951;59.656;9.666;2023-02-15T01:01:20;-1.20;99.90
21580;DHT22;10951;59.656;9.666;2023-02-15T01:03:50;-1.20;99.90
21580;DHT22;10951;59.656;9.666;2023-02-15T01:06:18;-1.40;99.90
21580;DHT22;10951;59.656;9.666;2023-02-15T01:08:46;-1.50;99.90
21580;DHT22;10951;59.656;9.666;2023-02-15T01:11:16;-1.50;99.90
21580;DHT22;10951;59.656;9.666;2023-02-15T01:13:51;-1.50;99.90
21580;DHT22;10951;59.656;9.666;2023-02-15T01:16:19;-1.50;99.90
21580;DHT22;10951;59.656;9.666;2023-02-15T01:18:46;-1.60;99.90
21580;DHT22;10951;59.656;9.666;2023-02-15T01:21:17;-1.60;99.90
21580;DHT22;10951;59.656;9.666;2023-02-15T01:23:44;-1.60;99.90
21580;DHT22;10951;59.656;9.666;2023-02-15T01:26:12;-1.60;99.90
21580;DHT22;10951;59.656;9.666;2023-02-15T01:28:39;-1.70;99.90
21580;DHT22;10951;59.656;9.666;2023-02-15T01:31:12;-1.70;99.90
21580;DHT22;10951;59.656;9.666;2023-02-15T01:33:39;-1.70;99.90
21580;DHT22;10951;59.656;9.666;2023-02-15T01:36:08;-1.60;99.90
21580;DHT22;10951;59.656;9.666;2023-02-15T01:38:36;-1.70;99.90
21580;DHT22;10951;59.656;9.666;2023-02-15T01:41:05;-1.70;99.90
21580;DHT22;10951;59.656;9.666;2023-02-15T01:46:22;-1.40;99.90
21580;DHT22;10951;59.656;9.666;2023-02-15T01:48:54;-1.40;99.90
21580;DHT22;10951;59.656;9.666;2023-02-15T01:51:24;-1.30;99.90
21580;DHT22;10951;59.656;9.666;2023-02-15T01:54:09;-1.30;99.90
21580;DHT22;10951;59.656;9.666;2023-02-15T01:56:39;-1.30;99.90
21580;DHT22;10951;59.656;9.666;2023-02-15T01:59:19;-1.30;99.90
21580;DHT22;10951;59.656;9.666;2023-02-15T02:01:49;-1.30;99.90
21580;DHT22;10951;59.656;9.666;2023-02-15T02:04:35;-1.30;99.90
21580;DHT22;10951;59.656;9.666;2023-02-15T02:07:06;-1.40;99.90
21580;DHT22;10951;59.656;9.666;2023-02-15T02:09:34;-1.30;99.90
21580;DHT22;10951;59.656;9.666;2023-02-15T02:12:01;-1.40;99.90
21580;DHT22;10951;59.656;9.666;2023-02-15T02:14:28;-1.40;99.90
21580;DHT22;10951;59.656;9.666;2023-02-15T02:17:06;-1.40;99.90
21580;DHT22;10951;59.656;9.666;2023-02-15T02:34:15;-1.90;99.90
21580;DHT22;10951;59.656;9.666;2023-02-15T02:39:51;-2.00;99.90
21580;DHT22;10951;59.656;9.666;2023-02-15T02:42:26;-2.10;99.90
21580;DHT22;10951;59.656;9.666;2023-02-15T02:45:03;-2.10;99.90
21580;DHT22;10951;59.656;9.666;2023-02-15T02:47:41;-2.20;99.90
21580;DHT22;10951;59.656;9.666;2023-02-15T02:50:14;-2.30;99.90
21580;DHT22;10951;59.656;9.666;2023-02-15T02:52:45;-2.40;99.90
21580;DHT22;10951;59.656;9.666;2023-02-15T02:55:26;-2.40;99.90
21580;DHT22;10951;59.656;9.666;2023-02-15T02:58:05;-2.40;99.90
21580;DHT22;10951;59.656;9.666;2023-02-15T03:01:06;-2.40;99.90
21580;DHT22;10951;59.656;9.666;2023-02-15T03:03:51;-2.30;99.90
21580;DHT22;10951;59.656;9.666;2023-02-15T03:06:32;-2.30;99.90
21580;DHT22;10951;59.656;9.666;2023-02-15T03:09:22;-2.40;99.90
21580;DHT22;10951;59.656;9.666;2023-02-15T03:11:50;-2.50;99.90
21580;DHT22;10951;59.656;9.666;2023-02-15T03:14:19;-2.60;99.90
21580;DHT22;10951;59.656;9.666;2023-02-15T03:16:47;-2.60;99.90
21580;DHT22;10951;59.656;9.666;2023-02-15T03:19:21;-2.60;99.90
21580;DHT22;10951;59.656;9.666;2023-02-15T03:21:53;-2.70;99.90
21580;DHT22;10951;59.656;9.666;2023-02-15T03:24:39;-2.80;99.90
21580;DHT22;10951;59.656;9.666;2023-02-15T03:27:14;-2.90;99.90
21580;DHT22;10951;59.656;9.666;2023-02-15T03:29:51;-2.90;99.90
21580;DHT22;10951;59.656;9.666;2023-02-15T03:32:20;-3.00;99.90
21580;DHT22;10951;59.656;9.666;2023-02-15T03:34:48;-3.00;99.90
21580;DHT22;10951;59.656;9.666;2023-02-15T03:40:19;-3.00;99.90
21580;DHT22;10951;59.656;9.666;2023-02-15T03:43:19;-3.00;99.90
21580;DHT22;10951;59.656;9.666;2023-02-15T03:45:52;-3.00;99.90
21580;DHT22;10951;59.656;9.666;2023-02-15T03:48:28;-3.00;99.90
21580;DHT22;10951;59.656;9.666;2023-02-15T03:51:00;-3.00;99.90
21580;DHT22;10951;59.656;9.666;2023-02-15T03:53:48;-3.10;99.90
21580;DHT22;10951;59.656;9.666;2023-02-15T03:56:15;-3.20;99.90
21580;DHT22;10951;59.656;9.666;2023-02-15T03:58:42;-3.20;99.90
21580;DHT22;10951;59.656;9.666;2023-02-15T04:04:39;-3.10;99.90
21580;DHT22;10951;59.656;9.666;2023-02-15T04:07:08;-3.00;99.90
21580;DHT22;10951;59.656;9.666;2023-02-15T04:09:35;-3.00;99.90
21580;DHT22;10951;59.656;9.666;2023-02-15T04:12:21;-3.00;99.90
21580;DHT22;10951;59.656;9.666;2023-02-15T04:14:47;-3.00;99.90
21580;DHT22;10951;59.656;9.666;2023-02-15T04:17:33;-2.90;99.90
21580;DHT22;10951;59.656;9.666;2023-02-15T04:20:00;-2.90;99.90
21580;DHT22;10951;59.656;9.666;2023-02-15T04:22:45;-2.90;99.90
21580;DHT22;10951;59.656;9.666;2023-02-15T04:25:31;-2.90;99.90
21580;DHT22;10951;59.656;9.666;2023-02-15T04:27:57;-2.90;99.90
21580;DHT22;10951;59.656;9.666;2023-02-15T04:30:25;-3.00;99.90
21580;DHT22;10951;59.656;9.666;2023-02-15T04:32:54;-3.00;99.90
21580;DHT22;10951;59.656;9.666;2023-02-15T04:35:21;-3.00;99.90
21580;DHT22;10951;59.656;9.666;2023-02-15T04:37:49;-2.90;99.90
21580;DHT22;10951;59.656;9.666;2023-02-15T04:40:16;-2.90;99.90
21580;DHT22;10951;59.656;9.666;2023-02-15T04:42:48;-2.80;99.90
21580;DHT22;10951;59.656;9.666;2023-02-15T04:45:16;-2.80;99.90
21580;DHT22;10951;59.656;9.666;2023-02-15T04:47:43;-2.90;99.90
21580;DHT22;10951;59.656;9.666;2023-02-15T04:50:10;-3.00;99.90
21580;DHT22;10951;59.656;9.666;2023-02-15T04:52:37;-3.10;99.90
21580;DHT22;10951;59.656;9.666;2023-02-15T04:55:05;-3.10;99.90
21580;DHT22;10951;59.656;9.666;2023-02-15T04:57:32;-3.10;99.90
21580;DHT22;10951;59.656;9.666;2023-02-15T04:59:59;-3.10;99.90
21580;DHT22;10951;59.656;9.666;2023-02-15T05:02:25;-3.30;99.90
21580;DHT22;10951;59.656;9.666;2023-02-15T05:04:52;-3.40;99.90
21580;DHT22;10951;59.656;9.666;2023-02-15T05:07:19;-3.40;99.90
21580;DHT22;10951;59.656;9.666;2023-02-15T05:09:47;-3.50;99.90
21580;DHT22;10951;59.656;9.666;2023-02-15T05:12:14;-3.50;99.90
21580;DHT22;10951;59.656;9.666;2023-02-15T05:14:41;-3.50;99.90
21580;DHT22;10951;59.656;9.666;2023-02-15T05:17:08;-3.50;99.90
21580;DHT22;10951;59.656;9.666;2023-02-15T05:19:34;-3.50;99.90
21580;DHT22;10951;59.656;9.666;2023-02-15T05:22:01;-3.50;99.90
21580;DHT22;10951;59.656;9.666;2023-02-15T05:24:28;-3.50;99.90
21580;DHT22;10951;59.656;9.666;2023-02-15T05:27:14;-3.50;99.90
21580;DHT22;10951;59.656;9.666;2023-02-15T05:29:59;-3.60;99.90
21580;DHT22;10951;59.656;9.666;2023-02-15T05:32:26;-3.60;99.90
21580;DHT22;10951;59.656;9.666;2023-02-15T05:34:54;-3.50;99.90
21580;DHT22;10951;59.656;9.666;2023-02-15T05:37:20;-3.60;99.90
21580;DHT22;10951;59.656;9.666;2023-02-15T05:39:48;-3.60;99.90
21580;DHT22;10951;59.656;9.666;2023-02-15T05:42:14;-3.60;99.90
21580;DHT22;10951;59.656;9.666;2023-02-15T05:44:41;-3.60;99.90
21580;DHT22;10951;59.656;9.666;2023-02-15T05:47:08;-3.60;99.90
21580;DHT22;10951;59.656;9.666;2023-02-15T05:49:35;-3.70;99.90
21580;DHT22;10951;59.656;9.666;2023-02-15T05:52:03;-3.70;99.90
21580;DHT22;10951;59.656;9.666;2023-02-15T05:54:30;-3.80;99.90
21580;DHT22;10951;59.656;9.666;2023-02-15T05:56:57;-3.90;99.90
21580;DHT22;10951;59.656;9.666;2023-02-15T05:59:24;-3.90;99.90
21580;DHT22;10951;59.656;9.666;2023-02-15T06:01:50;-3.90;99.90
21580;DHT22;10951;59.656;9.666;2023-02-15T06:04:17;-3.90;99.90
21580;DHT22;10951;59.656;9.666;2023-02-15T06:06:44;-3.90;99.90
21580;DHT22;10951;59.656;9.666;2023-02-15T06:09:12;-4.00;99.90
21580;DHT22;10951;59.656;9.666;2023-02-15T06:11:39;-4.00;99.90
21580;DHT22;10951;59.656;9.666;2023-02-15T06:14:06;-4.00;99.90
21580;DHT22;10951;59.656;9.666;2023-02-15T06:16:33;-4.00;99.90
21580;DHT22;10951;59.656;9.666;2023-02-15T06:19:00;-4.00;99.90
21580;DHT22;10951;59.656;9.666;2023-02-15T06:21:28;-4.00;99.90
21580;DHT22;10951;59.656;9.666;2023-02-15T06:23:55;-4.00;99.90
21580;DHT22;10951;59.656;9.666;2023-02-15T06:26:22;-4.00;99.90
21580;DHT22;10951;59.656;9.666;2023-02-15T06:28:49;-4.10;99.90
21580;DHT22;10951;59.656;9.666;2023-02-15T06:31:16;-4.10;99.90
21580;DHT22;10951;59.656;9.666;2023-02-15T06:33:43;-4.20;99.90
21580;DHT22;10951;59.656;9.666;2023-02-15T06:36:10;-4.20;99.90
21580;DHT22;10951;59.656;9.666;2023-02-15T06:38:37;-4.20;99.90
21580;DHT22;10951;59.656;9.666;2023-02-15T06:41:04;-4.30;99.90
21580;DHT22;10951;59.656;9.666;2023-02-15T06:43:30;-4.40;99.90
21580;DHT22;10951;59.656;9.666;2023-02-15T06:45:58;-4.40;99.90
21580;DHT22;10951;59.656;9.666;2023-02-15T06:48:25;-4.50;99.90
21580;DHT22;10951;59.656;9.666;2023-02-15T06:50:52;-4.50;99.90
21580;DHT22;10951;59.656;9.666;2023-02-15T06:53:19;-4.60;99.90
21580;DHT22;10951;59.656;9.666;2023-02-15T06:55:45;-4.50;99.90
21580;DHT22;10951;59.656;9.666;2023-02-15T06:58:12;-4.50;99.90
21580;DHT22;10951;59.656;9.666;2023-02-15T07:00:39;-4.50;99.90
21580;DHT22;10951;59.656;9.666;2023-02-15T07:03:06;-4.50;99.90
21580;DHT22;10951;59.656;9.666;2023-02-15T07:05:34;-4.50;99.90
21580;DHT22;10951;59.656;9.666;2023-02-15T07:08:01;-4.50;99.90
21580;DHT22;10951;59.656;9.666;2023-02-15T07:10:28;-4.60;99.90
21580;DHT22;10951;59.656;9.666;2023-02-15T07:12:55;-4.50;99.90
21580;DHT22;10951;59.656;9.666;2023-02-15T07:15:22;-4.60;99.90
21580;DHT22;10951;59.656;9.666;2023-02-15T07:17:49;-4.50;99.90
21580;DHT22;10951;59.656;9.666;2023-02-15T07:20:19;-4.50;99.90
21580;DHT22;10951;59.656;9.666;2023-02-15T07:22:46;-4.50;99.90
21580;DHT22;10951;59.656;9.666;2023-02-15T07:25:14;-4.50;99.90
21580;DHT22;10951;59.656;9.666;2023-02-15T07:27:41;-4.50;99.90
21580;DHT22;10951;59.656;9.666;2023-02-15T07:30:10;-4.60;99.90
21580;DHT22;10951;59.656;9.666;2023-02-15T07:32:38;-4.60;99.90
21580;DHT22;10951;59.656;9.666;2023-02-15T07:35:25;-4.70;99.90
21580;DHT22;10951;59.656;9.666;2023-02-15T07:37:52;-4.80;99.90
21580;DHT22;10951;59.656;9.666;2023-02-15T07:40:19;-4.80;99.90
21580;DHT22;10951;59.656;9.666;2023-02-15T07:42:50;-4.80;99.90
21580;DHT22;10951;59.656;9.666;2023-02-15T07:45:20;-4.90;99.90
21580;DHT22;10951;59.656;9.666;2023-02-15T07:47:47;-4.80;99.90
21580;DHT22;10951;59.656;9.666;2023-02-15T07:50:14;-4.90;99.90
21580;DHT22;10951;59.656;9.666;2023-02-15T07:52:41;-4.80;99.90
21580;DHT22;10951;59.656;9.666;2023-02-15T07:55:08;-4.80;99.90
21580;DHT22;10951;59.656;9.666;2023-02-15T07:57:35;-4.70;99.90
21580;DHT22;10951;59.656;9.666;2023-02-15T08:00:03;-4.80;99.90
21580;DHT22;10951;59.656;9.666;2023-02-15T08:02:38;-4.80;99.90
21580;DHT22;10951;59.656;9.666;2023-02-15T08:05:05;-4.80;99.90
21580;DHT22;10951;59.656;9.666;2023-02-15T08:07:33;-4.70;99.90
21580;DHT22;10951;59.656;9.666;2023-02-15T08:10:00;-4.60;99.90
21580;DHT22;10951;59.656;9.666;2023-02-15T08:12:27;-4.50;99.90
21580;DHT22;10951;59.656;9.666;2023-02-15T08:14:54;-4.50;99.90
21580;DHT22;10951;59.656;9.666;2023-02-15T08:17:20;-4.50;99.90
21580;DHT22;10951;59.656;9.666;2023-02-15T08:19:47;-4.50;99.90
21580;DHT22;10951;59.656;9.666;2023-02-15T08:22:14;-4.40;99.90
21580;DHT22;10951;59.656;9.666;2023-02-15T08:24:41;-4.30;99.90
21580;DHT22;10951;59.656;9.666;2023-02-15T08:27:10;-4.30;99.90
21580;DHT22;10951;59.656;9.666;2023-02-15T08:29:37;-4.20;99.90
21580;DHT22;10951;59.656;9.666;2023-02-15T08:32:08;-4.30;99.90
21580;DHT22;10951;59.656;9.666;2023-02-15T08:34:39;-4.20;99.90
21580;DHT22;10951;59.656;9.666;2023-02-15T08:37:07;-4.10;99.90
21580;DHT22;10951;59.656;9.666;2023-02-15T08:39:34;-4.00;99.90
21580;DHT22;10951;59.656;9.666;2023-02-15T08:42:01;-3.90;99.90
21580;DHT22;10951;59.656;9.666;2023-02-15T08:44:28;-3.90;99.90
21580;DHT22;10951;59.656;9.666;2023-02-15T08:46:56;-3.90;99.90
21580;DHT22;10951;59.656;9.666;2023-02-15T08:49:32;-3.80;99.90
21580;DHT22;10951;59.656;9.666;2023-02-15T08:51:59;-3.80;99.90
21580;DHT22;10951;59.656;9.666;2023-02-15T08:54:26;-3.70;99.90
21580;DHT22;10951;59.656;9.666;2023-02-15T08:56:53;-3.60;99.90
21580;DHT22;10951;59.656;9.666;2023-02-15T08:59:22;-3.60;99.90
21580;DHT22;10951;59.656;9.666;2023-02-15T09:01:50;-3.60;99.90
21580;DHT22;10951;59.656;9.666;2023-02-15T09:04:18;-3.60;99.90
21580;DHT22;10951;59.656;9.666;2023-02-15T09:06:46;-3.60;99.90
21580;DHT22;10951;59.656;9.666;2023-02-15T09:09:16;-3.50;99.90
21580;DHT22;10951;59.656;9.666;2023-02-15T09:11:44;-3.50;99.90
21580;DHT22;10951;59.656;9.666;2023-02-15T09:14:13;-3.50;99.90
21580;DHT22;10951;59.656;9.666;2023-02-15T09:16:42;-3.40;99.90
21580;DHT22;10951;59.656;9.666;2023-02-15T09:19:13;-3.30;99.90
21580;DHT22;10951;59.656;9.666;2023-02-15T09:21:40;-3.20;99.90
21580;DHT22;10951;59.656;9.666;2023-02-15T09:24:11;-3.10;99.90
21580;DHT22;10951;59.656;9.666;2023-02-15T09:26:41;-3.00;99.90
21580;DHT22;10951;59.656;9.666;2023-02-15T09:29:09;-2.90;99.90
21580;DHT22;10951;59.656;9.666;2023-02-15T09:31:43;-2.90;99.90
21580;DHT22;10951;59.656;9.666;2023-02-15T09:34:16;-2.80;99.90
21580;DHT22;10951;59.656;9.666;2023-02-15T09:36:44;-2.80;99.90
21580;DHT22;10951;59.656;9.666;2023-02-15T09:39:13;-2.80;99.90
21580;DHT22;10951;59.656;9.666;2023-02-15T09:55:59;-2.10;99.70
21580;DHT22;10951;59.656;9.666;2023-02-15T10:01:38;-2.00;99.30
21580;DHT22;10951;59.656;9.666;2023-02-15T10:15:46;-1.40;98.70
21580;DHT22;10951;59.656;9.666;2023-02-15T10:28:50;-1.00;97.80
21580;DHT22;10951;59.656;9.666;2023-02-15T10:31:28;-0.90;97.20
21580;DHT22;10951;59.656;9.666;2023-02-15T10:34:21;-0.90;96.90
21580;DHT22;10951;59.656;9.666;2023-02-15T10:37:21;-0.80;96.80
21580;DHT22;10951;59.656;9.666;2023-02-15T10:43:02;-0.80;96.50
21580;DHT22;10951;59.656;9.666;2023-02-15T10:51:00;-0.20;95.30
21580;DHT22;10951;59.656;9.666;2023-02-15T10:53:57;-0.10;95.30
21580;DHT22;10951;59.656;9.666;2023-02-15T11:02:24;0.10;95.30
21580;DHT22;10951;59.656;9.666;2023-02-15T11:05:07;0.20;95.00
21580;DHT22;10951;59.656;9.666;2023-02-15T11:07:44;0.20;95.00
21580;DHT22;10951;59.656;9.666;2023-02-15T11:10:37;0.30;95.10
21580;DHT22;10951;59.656;9.666;2023-02-15T11:13:11;0.30;95.20
21580;DHT22;10951;59.656;9.666;2023-02-15T11:15:49;0.30;95.30
21580;DHT22;10951;59.656;9.666;2023-02-15T11:18:39;0.20;95.30
21580;DHT22;10951;59.656;9.666;2023-02-15T11:21:33;0.20;95.50
21580;DHT22;10951;59.656;9.666;2023-02-15T11:24:14;0.10;95.60
21580;DHT22;10951;59.656;9.666;2023-02-15T11:27:10;-0.20;95.90
21580;DHT22;10951;59.656;9.666;2023-02-15T11:29:50;-0.30;96.40
21580;DHT22;10951;59.656;9.666;2023-02-15T11:32:35;-0.20;96.70
21580;DHT22;10951;59.656;9.666;2023-02-15T11:37:40;0.00;96.40
21580;DHT22;10951;59.656;9.666;2023-02-15T11:45:48;0.50;96.10
21580;DHT22;10951;59.656;9.666;2023-02-15T11:48:15;0.70;95.70
21580;DHT22;10951;59.656;9.666;2023-02-15T11:50:44;0.70;95.40
21580;DHT22;10951;59.656;9.666;2023-02-15T11:53:15;0.80;95.70
21580;DHT22;10951;59.656;9.666;2023-02-15T11:55:48;0.90;95.70
21580;DHT22;10951;59.656;9.666;2023-02-15T11:58:41;0.80;96.00
21580;DHT22;10951;59.656;9.666;2023-02-15T12:04:24;0.70;96.70
21580;DHT22;10951;59.656;9.666;2023-02-15T12:07:01;0.80;97.00
21580;DHT22;10951;59.656;9.666;2023-02-15T12:12:40;1.10;96.60
21580;DHT22;10951;59.656;9.666;2023-02-15T12:15:09;1.20;96.30
21580;DHT22;10951;59.656;9.666;2023-02-15T12:22:59;1.30;96.40
21580;DHT22;10951;59.656;9.666;2023-02-15T12:25:37;1.30;96.50
21580;DHT22;10951;59.656;9.666;2023-02-15T12:30:50;1.50;96.20
21580;DHT22;10951;59.656;9.666;2023-02-15T12:33:41;1.40;96.10
21580;DHT22;10951;59.656;9.666;2023-02-15T12:36:27;1.20;96.30
21580;DHT22;10951;59.656;9.666;2023-02-15T12:41:35;0.90;97.00
21580;DHT22;10951;59.656;9.666;2023-02-15T12:44:18;0.80;97.20
21580;DHT22;10951;59.656;9.666;2023-02-15T12:47:06;0.60;97.70
21580;DHT22;10951;59.656;9.666;2023-02-15T12:49:36;0.50;98.10
21580;DHT22;10951;59.656;9.666;2023-02-15T12:52:23;0.50;98.90
21580;DHT22;10951;59.656;9.666;2023-02-15T12:54:50;0.40;98.90
21580;DHT22;10951;59.656;9.666;2023-02-15T12:57:28;0.40;99.50
21580;DHT22;10951;59.656;9.666;2023-02-15T13:00:00;0.60;99.40
21580;DHT22;10951;59.656;9.666;2023-02-15T13:02:34;0.60;98.90
21580;DHT22;10951;59.656;9.666;2023-02-15T13:07:47;0.40;99.10
21580;DHT22;10951;59.656;9.666;2023-02-15T13:11:09;0.40;99.20
21580;DHT22;10951;59.656;9.666;2023-02-15T13:13:15;0.40;99.50
21580;DHT22;10951;59.656;9.666;2023-02-15T13:15:46;0.50;99.30
21580;DHT22;10951;59.656;9.666;2023-02-15T13:18:19;0.40;99.60
21580;DHT22;10951;59.656;9.666;2023-02-15T13:20:50;0.20;99.70
21580;DHT22;10951;59.656;9.666;2023-02-15T13:23:28;0.30;99.90
21580;DHT22;10951;59.656;9.666;2023-02-15T13:25:56;0.30;99.90
21580;DHT22;10951;59.656;9.666;2023-02-15T13:28:43;0.30;99.50
21580;DHT22;10951;59.656;9.666;2023-02-15T13:31:19;0.20;99.90
21580;DHT22;10951;59.656;9.666;2023-02-15T13:34:17;0.10;99.90
21580;DHT22;10951;59.656;9.666;2023-02-15T13:39:44;-0.30;99.90
21580;DHT22;10951;59.656;9.666;2023-02-15T13:42:20;-0.30;99.90
21580;DHT22;10951;59.656;9.666;2023-02-15T13:55:44;-0.50;99.90
21580;DHT22;10951;59.656;9.666;2023-02-15T14:01:19;-0.80;99.90
21580;DHT22;10951;59.656;9.666;2023-02-15T14:09:37;-1.00;99.90
21580;DHT22;10951;59.656;9.666;2023-02-15T14:18:27;-1.10;99.90
21580;DHT22;10951;59.656;9.666;2023-02-15T14:21:34;-1.00;99.90
21580;DHT22;10951;59.656;9.666;2023-02-15T14:29:57;-1.00;99.90
21580;DHT22;10951;59.656;9.666;2023-02-15T14:32:39;-1.00;99.90
21580;DHT22;10951;59.656;9.666;2023-02-15T14:35:20;-1.00;99.90
21580;DHT22;10951;59.656;9.666;2023-02-15T14:37:52;-1.00;99.90
21580;DHT22;10951;59.656;9.666;2023-02-15T14:40:59;-1.00;99.90
21580;DHT22;10951;59.656;9.666;2023-02-15T14:46:50;-1.00;99.90
21580;DHT22;10951;59.656;9.666;2023-02-15T14:49:25;-1.00;99.90
21580;DHT22;10951;59.656;9.666;2023-02-15T14:51:56;-1.00;99.90
21580;DHT22;10951;59.656;9.666;2023-02-15T14:59:45;-1.00;99.90
21580;DHT22;10951;59.656;9.666;2023-02-15T15:02:17;-1.10;99.90
21580;DHT22;10951;59.656;9.666;2023-02-15T15:04:56;-1.10;99.90
21580;DHT22;10951;59.656;9.666;2023-02-15T15:12:50;-1.10;99.90
21580;DHT22;10951;59.656;9.666;2023-02-15T15:18:09;-1.10;99.90
21580;DHT22;10951;59.656;9.666;2023-02-15T15:20:39;-1.10;99.90
21580;DHT22;10951;59.656;9.666;2023-02-15T15:31:08;-1.20;99.90
21580;DHT22;10951;59.656;9.666;2023-02-15T15:37:25;-1.30;99.90
21580;DHT22;10951;59.656;9.666;2023-02-15T15:48:28;-1.30;99.90
21580;DHT22;10951;59.656;9.666;2023-02-15T15:51:10;-1.30;99.90
21580;DHT22;10951;59.656;9.666;2023-02-15T15:53:40;-1.30;99.90
21580;DHT22;10951;59.656;9.666;2023-02-15T15:56:13;-1.40;99.90
21580;DHT22;10951;59.656;9.666;2023-02-15T15:58:46;-1.40;99.90
21580;DHT22;10951;59.656;9.666;2023-02-15T16:01:14;-1.40;99.90
21580;DHT22;10951;59.656;9.666;2023-02-15T16:03:52;-1.50;99.90
21580;DHT22;10951;59.656;9.666;2023-02-15T16:06:27;-1.40;99.90
21580;DHT22;10951;59.656;9.666;2023-02-15T16:08:54;-1.50;99.90
21580;DHT22;10951;59.656;9.666;2023-02-15T16:11:27;-1.50;99.90
21580;DHT22;10951;59.656;9.666;2023-02-15T16:13:56;-1.60;99.90
21580;DHT22;10951;59.656;9.666;2023-02-15T16:16:26;-1.50;99.90
21580;DHT22;10951;59.656;9.666;2023-02-15T16:18:56;-1.50;99.90
21580;DHT22;10951;59.656;9.666;2023-02-15T16:21:32;-1.50;99.90
21580;DHT22;10951;59.656;9.666;2023-02-15T16:27:35;-1.50;99.90
21580;DHT22;10951;59.656;9.666;2023-02-15T16:30:29;-1.50;99.90
21580;DHT22;10951;59.656;9.666;2023-02-15T16:33:11;-1.60;99.90
21580;DHT22;10951;59.656;9.666;2023-02-15T16:35:41;-1.70;99.90
21580;DHT22;10951;59.656;9.666;2023-02-15T16:38:28;-1.70;99.90
21580;DHT22;10951;59.656;9.666;2023-02-15T16:41:01;-1.80;99.90
21580;DHT22;10951;59.656;9.666;2023-02-15T16:43:30;-1.80;99.90
21580;DHT22;10951;59.656;9.666;2023-02-15T16:46:04;-1.90;99.90
21580;DHT22;10951;59.656;9.666;2023-02-15T16:48:33;-1.90;99.90
21580;DHT22;10951;59.656;9.666;2023-02-15T16:51:05;-1.90;99.90
21580;DHT22;10951;59.656;9.666;2023-02-15T16:53:33;-2.00;99.90
21580;DHT22;10951;59.656;9.666;2023-02-15T16:56:03;-2.10;99.90
21580;DHT22;10951;59.656;9.666;2023-02-15T16:58:37;-2.10;99.90
21580;DHT22;10951;59.656;9.666;2023-02-15T17:01:07;-2.10;99.90
21580;DHT22;10951;59.656;9.666;2023-02-15T17:03:35;-2.20;99.90
21580;DHT22;10951;59.656;9.666;2023-02-15T17:06:03;-2.20;99.90
21580;DHT22;10951;59.656;9.666;2023-02-15T17:08:41;-2.10;99.90
21580;DHT22;10951;59.656;9.666;2023-02-15T17:16:33;-2.20;99.90
21580;DHT22;10951;59.656;9.666;2023-02-15T17:19:08;-2.20;99.90
21580;DHT22;10951;59.656;9.666;2023-02-15T17:21:42;-2.20;99.90
21580;DHT22;10951;59.656;9.666;2023-02-15T17:27:22;-2.20;99.90
21580;DHT22;10951;59.656;9.666;2023-02-15T17:29:55;-2.20;99.90
21580;DHT22;10951;59.656;9.666;2023-02-15T17:32:28;-2.30;99.90
21580;DHT22;10951;59.656;9.666;2023-02-15T17:40:25;-2.40;99.90
21580;DHT22;10951;59.656;9.666;2023-02-15T17:42:53;-2.40;99.90
21580;DHT22;10951;59.656;9.666;2023-02-15T17:45:21;-2.40;99.90
21580;DHT22;10951;59.656;9.666;2023-02-15T17:47:49;-2.40;99.90
21580;DHT22;10951;59.656;9.666;2023-02-15T17:50:22;-2.40;99.90
21580;DHT22;10951;59.656;9.666;2023-02-15T17:52:50;-2.40;99.90
21580;DHT22;10951;59.656;9.666;2023-02-15T17:55:19;-2.40;99.90
21580;DHT22;10951;59.656;9.666;2023-02-15T17:58:05;-2.40;99.90
21580;DHT22;10951;59.656;9.666;2023-02-15T18:00:35;-2.40;99.90
21580;DHT22;10951;59.656;9.666;2023-02-15T18:03:21;-2.30;99.90
21580;DHT22;10951;59.656;9.666;2023-02-15T18:06:09;-2.20;99.90
21580;DHT22;10951;59.656;9.666;2023-02-15T18:08:57;-2.20;99.90
21580;DHT22;10951;59.656;9.666;2023-02-15T18:11:43;-2.20;99.90
21580;DHT22;10951;59.656;9.666;2023-02-15T18:14:14;-2.30;99.90
21580;DHT22;10951;59.656;9.666;2023-02-15T18:16:42;-2.20;99.90
21580;DHT22;10951;59.656;9.666;2023-02-15T18:19:15;-2.10;99.90
21580;DHT22;10951;59.656;9.666;2023-02-15T18:21:43;-2.10;99.90
21580;DHT22;10951;59.656;9.666;2023-02-15T18:24:19;-2.00;99.90
21580;DHT22;10951;59.656;9.666;2023-02-15T18:26:47;-2.00;99.90
21580;DHT22;10951;59.656;9.666;2023-02-15T18:29:14;-2.00;99.90
21580;DHT22;10951;59.656;9.666;2023-02-15T18:31:41;-1.90;99.90
21580;DHT22;10951;59.656;9.666;2023-02-15T18:34:20;-1.90;99.90
21580;DHT22;10951;59.656;9.666;2023-02-15T18:36:48;-1.90;99.90
21580;DHT22;10951;59.656;9.666;2023-02-15T18:39:38;-1.90;99.90
21580;DHT22;10951;59.656;9.666;2023-02-15T18:42:23;-1.90;99.90
21580;DHT22;10951;59.656;9.666;2023-02-15T18:44:55;-1.90;99.90
21580;DHT22;10951;59.656;9.666;2023-02-15T18:47:22;-1.80;99.90
21580;DHT22;10951;59.656;9.666;2023-02-15T18:49:50;-1.80;99.90
21580;DHT22;10951;59.656;9.666;2023-02-15T18:52:22;-1.70;99.90
21580;DHT22;10951;59.656;9.666;2023-02-15T18:54:54;-1.70;99.90
21580;DHT22;10951;59.656;9.666;2023-02-15T18:57:21;-1.70;99.90
21580;DHT22;10951;59.656;9.666;2023-02-15T18:59:48;-1.60;99.90
21580;DHT22;10951;59.656;9.666;2023-02-15T19:02:16;-1.50;99.90
21580;DHT22;10951;59.656;9.666;2023-02-15T19:04:45;-1.50;99.90
21580;DHT22;10951;59.656;9.666;2023-02-15T19:07:19;-1.50;99.90
21580;DHT22;10951;59.656;9.666;2023-02-15T19:09:50;-1.50;99.90
21580;DHT22;10951;59.656;9.666;2023-02-15T19:12:18;-1.50;99.90
21580;DHT22;10951;59.656;9.666;2023-02-15T19:14:45;-1.50;99.90
21580;DHT22;10951;59.656;9.666;2023-02-15T19:17:17;-1.50;99.90
21580;DHT22;10951;59.656;9.666;2023-02-15T19:19:45;-1.50;99.90
21580;DHT22;10951;59.656;9.666;2023-02-15T19:22:18;-1.50;99.90